Impacts METAR Board
IDs:

KLAX - Los Angeles Intl, CA, US

Updated at: 0700 UTC 24 Sep 2018
Potential Impact None Slight Moderate High
Time 23/19Z 23/20Z 23/21Z 23/22Z 23/23Z 24/00Z 24/01Z 24/02Z 24/03Z 24/04Z 24/05Z 24/06Z 24/07Z
Temp72 72 72 71 70 69 68 67 67 66 66 66 66
Dewpt61 61 60 60 60 60 60 60 62 61 61 61 60
Altim29.92 29.90 29.88 29.86 29.84 29.82 29.82 29.82 29.83 29.85 29.86 29.86 29.87
VIS10 10 10 10 10 10 10 10 10 10 10 10 10
CIG-- -- -- -- -- -- -- -- 9 9 9 11 12
CoverFEWFEWFEWFEWFEWFEWFEWFEWBKNOVCBKNBKNOVC
FltCatVFRVFRVFRVFRVFRVFRVFRVFRIFRIFRIFRMVFRMVFR
WX--------------------------
WDir250260250250260260260250250260240270260
WSpd7 9 11 12 12 11 10 7 9 5 5 5 5
WGst-- -- -- -- -- -- -- -- -- -- -- -- --
Raw hourly METARs
KLAX 231853Z 25007KT 10SM FEW013 FEW095 22/16 A2992 RMK AO2 SLP131 T02220161 $
KLAX 231953Z 26009KT 10SM FEW012 FEW095 22/16 A2990 RMK AO2 SLP124 T02220161 $
KLAX 232053Z 25011KT 10SM FEW011 FEW095 22/16 A2988 RMK AO2 SLP118 T02220156 58018 $
KLAX 232153Z 25012KT 10SM FEW011 FEW095 22/16 A2986 RMK AO2 SLP108 T02170156 $
KLAX 232253Z 26012KT 10SM FEW011 FEW095 21/16 A2984 RMK AO2 SLP103 T02110156 $
KLAX 232353Z 26011KT 10SM FEW050 21/16 A2982 RMK AO2 SLP097 T02060156 10228 20206 56021 $
KLAX 240053Z 26010KT 10SM FEW100 20/16 A2982 RMK AO2 SLP096 T02000156 $
KLAX 240153Z 25007KT 10SM FEW010 FEW100 19/16 A2982 RMK AO2 SLP097 T01940156 $
KLAX 240253Z 25009KT 10SM BKN009 19/17 A2983 RMK AO2 SLP099 T01940167 53002 $
KLAX 240353Z 26005KT 10SM OVC009 19/16 A2985 RMK AO2 SLP105 T01890161 $
KLAX 240453Z 24005KT 10SM BKN009 19/16 A2986 RMK AO2 SLP108 T01890161 $
KLAX 240553Z 27005KT 10SM SCT009 BKN011 19/16 A2986 RMK AO2 SLP109 T01890161 10211 20189 51011 $
KLAX 240653Z 26005KT 10SM SCT009 OVC012 19/16 A2987 RMK AO2 SLP111 T01890156 $



Page loaded:  07:43 UTC  |   12:43 AM Pacific  |   01:43 AM Mountain  |   02:43 AM Central  |   03:43 AM Eastern

 

ADVISORIES

FORECASTS

FORECASTS

OBSERVATIONS

USER TOOLS

ABOUT US